Time;durP1;ratioP1;P1;durP2;ratioP2;P2;SDS_P1;SDS_P2;PMS_P1;PMS_P2;Temp;Humidity;BMP_temperature;BMP_pressure;BME280_temperature;BME280_humidity;BME280_pressure;Samples;Min_cycle;Max_cycle;Signal;HPM_P1;HPM_P2
2023/09/23 00:05:35;;;;;;;1.23;0.97;;;;;;;15.12;71.66;98685.94;7320899;39;21097;31
2023/09/23 00:11:14;;;;;;;2.05;1.10;;;;;;;14.97;72.25;98677.97;7274270;40;20279;31
2023/09/23 00:16:34;;;;;;;1.00;0.90;;;;;;;14.91;72.44;98684.25;7229925;40;20288;31
2023/09/23 00:22:12;;;;;;;1.35;1.00;;;;;;;14.79;73.20;98689.41;7277799;40;20272;31
2023/09/23 00:32:50;;;;;;;1.80;1.00;;;;;;;14.76;73.25;98691.72;7239893;39;20419;31
2023/09/23 00:38:12;;;;;;;2.65;1.00;;;;;;;14.81;72.37;98700.09;7327039;39;20265;31
2023/09/23 00:43:48;;;;;;;1.30;0.90;;;;;;;14.79;72.85;98697.56;7330470;39;20341;31
2023/09/23 00:49:24;;;;;;;1.00;0.90;;;;;;;14.80;73.09;98703.81;7317927;39;20366;31
2023/09/23 00:54:57;;;;;;;1.03;0.93;;;;;;;14.72;72.77;98699.44;7265081;40;20284;31
2023/09/23 01:05:39;;;;;;;2.40;1.00;;;;;;;14.66;72.63;98704.84;7274881;40;21258;31
2023/09/23 01:11:16;;;;;;;1.63;1.10;;;;;;;14.69;73.35;98701.72;7233758;40;20319;31
2023/09/23 01:16:46;;;;;;;2.70;1.10;;;;;;;14.70;72.57;98698.00;7289051;40;20250;31
2023/09/23 01:22:23;;;;;;;2.47;1.10;;;;;;;14.58;72.66;98705.03;7237727;40;20459;31
2023/09/23 01:28:00;;;;;;;2.40;1.20;;;;;;;14.57;72.92;98708.81;7257000;40;20241;31
2023/09/23 01:33:35;;;;;;;1.40;1.10;;;;;;;14.51;73.06;98715.03;7248423;40;20265;31
2023/09/23 01:38:55;;;;;;;1.63;1.10;;;;;;;14.58;73.36;98710.44;7214510;40;20265;31
2023/09/23 01:44:31;;;;;;;2.30;1.27;;;;;;;14.57;73.64;98706.09;7239290;40;20384;31
2023/09/23 01:49:52;;;;;;;1.05;0.90;;;;;;;14.54;72.88;98714.59;7266970;40;20254;31
2023/09/23 01:55:27;;;;;;;1.70;1.07;;;;;;;14.49;72.82;98717.94;7269057;40;20884;31
2023/09/23 02:07:05;;;;;;;3.75;1.25;;;;;;;14.32;73.81;98741.81;7323808;39;20822;31
2023/09/23 02:12:39;;;;;;;0.96;0.92;;;;;;;14.33;73.73;98738.09;7301164;39;20333;31
2023/09/23 02:18:15;;;;;;;1.15;1.00;;;;;;;14.34;73.24;98731.62;7305360;39;20249;31
2023/09/23 02:23:51;;;;;;;1.80;1.00;;;;;;;14.28;73.74;98754.12;7284814;39;21275;31
2023/09/23 02:29:29;;;;;;;1.20;1.00;;;;;;;14.34;73.10;98758.75;7286934;40;20242;31
2023/09/23 02:35:06;;;;;;;1.90;1.20;;;;;;;14.27;72.77;98771.41;7242061;40;20256;31
2023/09/23 02:45:42;;;;;;;2.60;1.20;;;;;;;14.05;74.06;98801.50;7266147;40;20455;31
2023/09/23 02:56:21;;;;;;;3.83;1.40;;;;;;;13.85;74.19;98815.75;7292016;39;20706;31
2023/09/23 03:07:06;;;;;;;1.90;1.15;;;;;;;13.70;74.16;98815.00;7368875;39;21833;31
2023/09/23 03:12:43;;;;;;;1.80;1.20;;;;;;;13.72;74.17;98818.38;7363157;39;20318;31
2023/09/23 03:18:14;;;;;;;4.40;1.30;;;;;;;13.62;74.72;98828.69;7357985;39;20334;31
2023/09/23 03:23:44;;;;;;;1.44;1.10;;;;;;;13.53;74.15;98836.13;7301162;39;20244;31
2023/09/23 03:29:20;;;;;;;1.85;1.10;;;;;;;13.48;74.59;98846.69;7235152;40;20323;31
2023/09/23 03:34:41;;;;;;;3.35;1.30;;;;;;;13.44;74.29;98850.81;7239074;40;20252;31
2023/09/23 03:40:15;;;;;;;1.87;1.37;;;;;;;13.39;74.51;98847.00;7254448;39;20324;31
2023/09/23 03:45:51;;;;;;;2.90;1.30;;;;;;;13.41;74.97;98851.22;7264609;40;20355;31
2023/09/23 03:51:31;;;;;;;2.10;1.60;;;;;;;13.46;74.33;98865.00;7262431;39;20345;31
2023/09/23 03:57:05;;;;;;;1.40;1.15;;;;;;;13.49;74.56;98870.03;7231687;40;20246;31
2023/09/23 04:02:26;;;;;;;2.20;1.10;;;;;;;13.39;74.42;98865.94;7217019;40;20381;31
2023/09/23 04:08:00;;;;;;;1.95;1.30;;;;;;;13.31;74.73;98874.19;7231293;40;20241;31
2023/09/23 04:13:37;;;;;;;1.70;1.20;;;;;;;13.34;74.33;98888.19;7224367;40;20343;31
2023/09/23 04:18:58;;;;;;;1.10;1.00;;;;;;;13.35;73.84;98872.78;7243838;40;20241;31
2023/09/23 04:24:18;;;;;;;1.87;1.00;;;;;;;13.26;73.72;98874.78;7265142;40;20639;31
2023/09/23 04:34:59;;;;;;;2.38;1.22;;;;;;;13.09;73.67;98886.84;7249813;40;20257;31
2023/09/23 04:45:24;;;;;;;1.53;1.20;;;;;;;12.92;73.54;98894.34;7330123;39;21111;31
2023/09/23 04:51:03;;;;;;;2.54;1.30;;;;;;;12.71;73.49;98894.28;7337933;39;20980;31
2023/09/23 04:56:24;;;;;;;1.40;1.10;;;;;;;12.49;74.04;98900.59;7288709;39;20348;31
2023/09/23 05:01:44;;;;;;;3.87;1.30;;;;;;;12.52;74.53;98909.19;7337904;39;20278;31
2023/09/23 05:07:20;;;;;;;2.90;1.50;;;;;;;12.52;74.83;98913.75;7287815;40;20244;31
2023/09/23 05:12:37;;;;;;;2.00;1.10;;;;;;;12.59;75.08;98928.22;7215955;40;21078;31
2023/09/23 05:17:57;;;;;;;2.60;1.50;;;;;;;12.65;74.88;98931.00;7238141;40;20253;31
2023/09/23 05:23:37;;;;;;;2.73;1.40;;;;;;;12.72;74.79;98935.69;7251691;40;20256;31
2023/09/23 05:29:12;;;;;;;1.75;1.50;;;;;;;12.59;73.94;98931.72;7286579;39;20308;31
2023/09/23 05:34:31;;;;;;;3.05;1.45;;;;;;;12.44;74.62;98940.87;7277754;40;20360;31
2023/09/23 05:40:17;;;;;;;2.20;1.25;;;;;;;12.51;74.94;98953.44;7252529;40;20259;31
2023/09/23 05:45:45;;;;;;;4.20;1.27;;;;;;;12.49;75.03;98970.91;7040080;40;20456;31
2023/09/23 05:51:20;;;;;;;5.30;1.53;;;;;;;12.29;75.98;98973.28;7273297;40;20287;31
2023/09/23 05:56:56;;;;;;;13.43;2.07;;;;;;;12.33;76.56;98979.97;7219811;40;20332;31
2023/09/23 06:07:37;;;;;;;3.70;1.50;;;;;;;12.59;75.89;99007.44;7307764;39;22100;31
2023/09/23 06:13:17;;;;;;;3.83;1.50;;;;;;;12.65;76.89;99013.97;7318899;39;20335;31
2023/09/23 06:23:56;;;;;;;4.70;1.70;;;;;;;12.67;76.68;99038.16;7248481;40;21691;31
2023/09/23 06:34:38;;;;;;;2.23;1.40;;;;;;;12.91;76.23;99041.44;7298535;39;21298;31
2023/09/23 06:39:58;;;;;;;1.60;1.30;;;;;;;13.06;75.64;99045.00;7300786;40;20438;31
2023/09/23 06:45:18;;;;;;;2.37;1.40;;;;;;;13.07;75.54;99056.66;7246074;40;20284;31
2023/09/23 06:51:15;;;;;;;2.63;1.40;;;;;;;12.99;76.03;99057.56;7277219;40;20274;31
2023/09/23 06:56:36;;;;;;;3.50;1.55;;;;;;;13.03;75.79;99072.41;7247909;40;20421;31
2023/09/23 07:02:10;;;;;;;2.30;1.50;;;;;;;13.14;76.11;99079.28;7260834;40;20377;31
2023/09/23 07:12:51;;;;;;;2.57;1.30;;;;;;;13.34;76.33;99087.69;7240918;40;21161;31
2023/09/23 07:18:26;;;;;;;1.60;1.30;;;;;;;13.59;75.95;99085.53;7260140;40;20245;31
2023/09/23 07:23:48;;;;;;;2.97;1.20;;;;;;;13.81;75.47;99092.69;7249640;40;20311;31
2023/09/23 07:29:26;;;;;;;3.77;1.33;;;;;;;13.93;75.63;99091.16;7260253;40;20315;31
2023/09/23 07:35:01;;;;;;;2.30;1.27;;;;;;;14.09;74.62;99096.34;7248168;40;20244;31
2023/09/23 07:40:36;;;;;;;1.45;1.20;;;;;;;14.25;74.03;99109.66;7264099;40;20802;31
2023/09/23 07:46:10;;;;;;;3.05;1.30;;;;;;;14.38;73.68;99115.25;7182471;40;20961;31
2023/09/23 07:51:49;;;;;;;3.05;1.40;;;;;;;14.55;73.46;99117.72;7157205;40;20769;31
2023/09/23 07:57:25;;;;;;;2.50;1.50;;;;;;;14.76;73.38;99140.25;7185523;40;20262;31
2023/09/23 08:03:01;;;;;;;1.75;1.35;;;;;;;14.88;72.43;99151.41;7248419;40;20791;31
2023/09/23 08:13:26;;;;;;;3.85;1.40;;;;;;;14.99;72.10;99174.47;7320994;39;20244;31
2023/09/23 08:19:00;;;;;;;2.17;1.20;;;;;;;14.98;72.82;99173.62;7281519;39;20260;31
2023/09/23 08:24:35;;;;;;;3.23;1.30;;;;;;;15.14;72.21;99178.78;7353403;39;20263;31
2023/09/23 08:29:56;;;;;;;3.60;1.20;;;;;;;15.24;71.49;99184.72;7282594;40;20244;31
2023/09/23 08:35:33;;;;;;;1.73;1.20;;;;;;;15.23;70.96;99183.03;7310596;39;20259;31
2023/09/23 08:41:08;;;;;;;2.90;1.35;;;;;;;15.49;71.01;99185.09;7248833;40;20241;31
2023/09/23 08:46:45;;;;;;;2.17;1.40;;;;;;;15.65;69.23;99193.00;7225072;40;20306;31
2023/09/23 08:57:19;;;;;;;3.03;1.30;;;;;;;15.89;68.29;99180.78;7218038;40;20247;31
2023/09/23 09:02:54;;;;;;;2.28;1.38;;;;;;;16.05;68.94;99194.06;7218856;39;20482;31
2023/09/23 09:08:30;;;;;;;2.77;1.43;;;;;;;16.17;68.19;99192.44;7254393;40;20279;31
2023/09/23 09:19:10;;;;;;;3.90;1.40;;;;;;;16.40;67.27;99196.72;7278228;39;20263;31
2023/09/23 09:24:49;;;;;;;2.87;1.77;;;;;;;16.60;66.48;99193.03;7295922;39;20257;31
2023/09/23 09:30:12;;;;;;;2.20;1.10;;;;;;;16.78;66.42;99197.88;7290195;39;20380;31
2023/09/23 09:40:52;;;;;;;2.07;1.30;;;;;;;17.03;65.62;99212.59;7324484;39;21855;31
2023/09/23 09:51:28;;;;;;;4.80;1.40;;;;;;;17.31;64.68;99196.06;7341509;39;20271;31
2023/09/23 09:56:59;;;;;;;3.55;1.10;;;;;;;17.54;63.57;99195.63;7340997;39;20245;31
2023/09/23 10:02:35;;;;;;;3.00;1.20;;;;;;;17.78;62.79;99197.72;7274854;39;20478;31
2023/09/23 10:08:12;;;;;;;3.63;1.20;;;;;;;17.86;61.62;99200.22;7197390;40;20262;31
2023/09/23 10:13:46;;;;;;;2.77;1.30;;;;;;;18.05;61.75;99195.75;7278217;40;20249;31
2023/09/23 10:19:24;;;;;;;1.87;1.20;;;;;;;18.17;60.25;99185.00;7261889;39;20294;31
2023/09/23 10:24:58;;;;;;;2.03;1.23;;;;;;;17.95;60.96;99198.94;7243695;40;20311;31
2023/09/23 10:30:37;;;;;;;2.63;1.40;;;;;;;17.76;61.56;99205.28;7208214;40;20262;31
2023/09/23 10:36:12;;;;;;;2.70;1.35;;;;;;;17.83;61.40;99208.81;7174894;40;20707;31
2023/09/23 10:41:47;;;;;;;2.73;1.30;;;;;;;17.86;61.12;99208.37;7237813;40;20695;31
2023/09/23 10:47:26;;;;;;;3.70;1.50;;;;;;;17.96;61.34;99207.94;7183130;40;20743;31
2023/09/23 10:53:03;;;;;;;2.00;1.23;;;;;;;17.93;61.63;99211.97;7167612;40;20846;31
2023/09/23 10:58:38;;;;;;;2.50;1.37;;;;;;;17.91;61.26;99210.47;7148910;40;20813;31
2023/09/23 11:04:15;;;;;;;4.13;1.30;;;;;;;18.02;61.35;99197.03;7128332;40;20246;31
2023/09/23 11:09:50;;;;;;;5.60;1.40;;;;;;;18.03;60.37;99204.16;7141433;40;20342;31
2023/09/23 11:15:27;;;;;;;2.53;1.40;;;;;;;18.68;59.39;99201.41;7192152;40;20393;31
2023/09/23 11:21:03;;;;;;;3.40;1.60;;;;;;;18.78;58.56;99199.03;7248960;40;20278;31
2023/09/23 11:26:24;;;;;;;2.60;1.50;;;;;;;18.58;57.86;99211.94;7273008;40;20300;31
2023/09/23 11:31:44;;;;;;;3.50;1.40;;;;;;;18.93;57.80;99215.94;7230207;40;20380;31
2023/09/23 11:37:20;;;;;;;4.83;1.60;;;;;;;18.92;58.30;99212.38;7260981;39;20272;31
2023/09/23 11:42:56;;;;;;;4.60;1.60;;;;;;;19.11;58.07;99216.03;7266725;40;20451;31
2023/09/23 11:48:17;;;;;;;2.80;1.40;;;;;;;18.96;58.17;99222.84;7241443;40;20284;31
2023/09/23 11:53:53;;;;;;;3.27;1.50;;;;;;;18.94;59.13;99225.81;7261152;40;20846;31
2023/09/23 11:59:14;;;;;;;3.43;1.40;;;;;;;19.74;56.77;99238.69;7253367;39;20256;31
2023/09/23 12:09:57;;;;;;;6.70;1.60;;;;;;;19.52;54.96;99239.31;7292195;39;20338;31
2023/09/23 12:15:21;;;;;;;4.37;1.55;;;;;;;19.24;57.15;99236.97;7273064;39;20241;31
2023/09/23 12:26:23;;;;;;;4.10;1.80;;;;;;;18.74;57.32;99244.19;7314939;39;20259;31
2023/09/23 12:37:03;;;;;;;5.88;1.62;;;;;;;19.35;56.61;99238.97;7323059;39;20283;31
2023/09/23 12:42:38;;;;;;;5.60;1.75;;;;;;;19.61;54.06;99232.50;7340682;39;20272;31
2023/09/23 12:48:13;;;;;;;2.75;1.50;;;;;;;19.83;55.19;99249.34;7260829;40;20390;31
2023/09/23 12:53:47;;;;;;;2.93;1.40;;;;;;;19.51;54.05;99257.62;6996974;40;20359;31
2023/09/23 12:59:37;;;;;;;4.70;1.50;;;;;;;19.58;54.49;99263.84;7159772;40;20261;31
2023/09/23 13:10:06;;;;;;;2.13;1.40;;;;;;;19.95;54.39;99283.09;7248507;40;21477;31
2023/09/23 13:20:49;;;;;;;4.45;1.70;;;;;;;20.27;54.07;99272.91;7332685;39;20260;31
2023/09/23 13:26:23;;;;;;;2.10;1.47;;;;;;;20.38;53.67;99286.69;7343693;39;21178;31
2023/09/23 13:31:43;;;;;;;3.00;1.50;;;;;;;20.47;53.46;99293.53;7276731;40;20404;31
2023/09/23 13:42:21;;;;;;;2.70;1.40;;;;;;;19.87;54.76;99295.19;7314698;39;20278;31
2023/09/23 13:47:42;;;;;;;2.20;1.25;;;;;;;19.75;56.18;99310.62;7304672;39;20325;31
2023/09/23 13:53:15;;;;;;;3.53;1.50;;;;;;;19.60;55.65;99310.97;7309414;39;20248;31
2023/09/23 13:58:51;;;;;;;4.83;1.50;;;;;;;19.70;57.01;99319.50;7279913;40;20249;31
2023/09/23 14:04:12;;;;;;;4.10;1.70;;;;;;;20.04;56.11;99317.34;7298525;39;20308;31
2023/09/23 14:09:49;;;;;;;2.00;1.40;;;;;;;20.16;54.78;99318.28;7297147;39;20255;31
2023/09/23 14:15:28;;;;;;;4.20;1.70;;;;;;;20.32;55.18;99331.41;7217522;40;20269;31
2023/09/23 14:26:07;;;;;;;2.77;1.50;;;;;;;20.25;53.92;99338.81;7259114;39;21259;31
2023/09/23 14:36:44;;;;;;;3.37;1.43;;;;;;;20.01;54.87;99345.16;7255142;39;20264;31
2023/09/23 14:47:08;;;;;;;2.70;1.50;;;;;;;20.07;54.81;99364.25;7315240;39;21114;31
2023/09/23 14:57:47;;;;;;;3.30;1.60;;;;;;;19.63;55.02;99380.78;7370394;39;21576;31
2023/09/23 15:08:09;;;;;;;3.73;1.40;;;;;;;19.15;56.16;99396.78;7359423;39;21019;31
2023/09/23 15:13:42;;;;;;;2.10;1.10;;;;;;;18.97;54.65;99408.41;7338678;39;20232;31
2023/09/23 15:19:18;;;;;;;6.20;1.30;;;;;;;18.86;53.81;99412.66;7317278;39;20338;31
2023/09/23 15:30:00;;;;;;;1.70;1.27;;;;;;;18.69;54.14;99410.62;7317030;39;20279;31
2023/09/23 15:35:36;;;;;;;2.00;1.27;;;;;;;18.72;54.55;99413.75;7301925;39;20244;31
2023/09/23 15:40:58;;;;;;;2.40;1.47;;;;;;;18.73;54.72;99422.78;7267831;39;20287;31
2023/09/23 15:46:35;;;;;;;3.00;1.20;;;;;;;18.68;54.44;99428.87;7297596;40;20271;31
2023/09/23 15:52:07;;;;;;;3.13;1.27;;;;;;;18.70;54.96;99426.78;7269345;40;20276;31
2023/09/23 15:57:28;;;;;;;2.60;1.30;;;;;;;18.66;53.68;99438.34;7275332;39;20405;31
2023/09/23 16:03:04;;;;;;;1.97;1.00;;;;;;;18.60;53.99;99436.47;7234575;40;20758;31
2023/09/23 16:08:26;;;;;;;1.70;1.20;;;;;;;18.56;54.12;99440.69;7227897;40;20245;31
2023/09/23 16:13:48;;;;;;;2.50;1.30;;;;;;;18.50;53.24;99445.06;7289881;40;20255;31
2023/09/23 16:19:24;;;;;;;12.10;1.65;;;;;;;18.42;53.65;99453.47;7310510;39;20245;31
2023/09/23 16:25:00;;;;;;;2.15;1.50;;;;;;;18.34;54.22;99461.88;7284694;40;20726;31
2023/09/23 16:35:40;;;;;;;2.34;1.40;;;;;;;18.24;53.93;99475.09;7297515;40;21051;31
2023/09/23 16:41:15;;;;;;;2.65;1.60;;;;;;;18.13;54.77;99483.88;7278471;40;20712;31
2023/09/23 16:46:36;;;;;;;2.20;1.50;;;;;;;18.15;54.81;99503.63;7250989;40;20347;31
2023/09/23 16:52:14;;;;;;;3.00;1.40;;;;;;;18.03;55.97;99500.66;7222439;40;20868;31
2023/09/23 16:57:34;;;;;;;4.00;1.50;;;;;;;18.00;55.46;99506.50;7209445;40;20258;31
2023/09/23 17:03:08;;;;;;;3.70;1.40;;;;;;;17.99;55.26;99508.41;7199188;40;20245;31
2023/09/23 17:08:44;;;;;;;2.07;1.40;;;;;;;17.95;55.73;99519.94;7294558;39;20244;31
2023/09/23 17:14:04;;;;;;;3.60;1.40;;;;;;;17.97;55.92;99529.59;7268043;40;20387;31
2023/09/23 17:19:41;;;;;;;1.87;1.40;;;;;;;17.93;56.78;99533.78;7293208;39;20240;31
2023/09/23 17:25:16;;;;;;;5.40;1.50;;;;;;;17.81;57.27;99545.50;7250825;40;20406;31
2023/09/23 17:30:52;;;;;;;4.60;1.50;;;;;;;17.73;58.11;99543.78;7291019;40;20251;31
2023/09/23 17:36:12;;;;;;;2.45;1.50;;;;;;;17.73;58.69;99551.13;7258277;40;20291;31
2023/09/23 17:41:47;;;;;;;3.17;1.60;;;;;;;17.61;59.34;99550.87;7236873;40;20421;31
2023/09/23 17:47:09;;;;;;;4.80;2.00;;;;;;;17.57;59.07;99560.47;7224960;40;20308;31
2023/09/23 17:52:29;;;;;;;3.70;2.27;;;;;;;17.51;59.64;99562.09;7265583;40;20334;31
2023/09/23 17:58:08;;;;;;;12.37;6.90;;;;;;;17.41;59.46;99569.84;7298133;40;20389;31
2023/09/23 18:03:26;;;;;;;4.57;2.40;;;;;;;17.39;59.84;99569.19;7249945;40;20262;31
2023/09/23 18:08:46;;;;;;;3.75;2.05;;;;;;;17.21;61.02;99574.31;7287029;40;20247;31
2023/09/23 18:14:24;;;;;;;3.80;1.70;;;;;;;17.08;61.37;99585.12;7338133;39;20249;31
2023/09/23 18:19:44;;;;;;;4.00;1.90;;;;;;;17.14;61.77;99597.94;7309588;39;20249;31
2023/09/23 18:25:17;;;;;;;3.60;1.70;;;;;;;17.09;61.69;99605.88;7326260;39;20342;31
2023/09/23 18:31:04;;;;;;;3.10;1.60;;;;;;;16.93;63.24;99615.19;7355913;39;20370;31
2023/09/23 18:36:39;;;;;;;2.40;1.55;;;;;;;16.91;64.65;99625.41;7258287;40;20291;31
2023/09/23 18:47:19;;;;;;;4.15;1.80;;;;;;;16.89;64.57;99629.41;7228741;40;20270;31
2023/09/23 18:52:55;;;;;;;3.95;1.45;;;;;;;16.81;64.53;99643.97;7266627;40;20233;31
2023/09/23 19:03:35;;;;;;;5.55;2.30;;;;;;;16.79;64.17;99665.13;7261151;40;21249;31
2023/09/23 19:08:55;;;;;;;3.80;1.90;;;;;;;16.81;64.89;99684.81;7257443;40;20259;31
2023/09/23 19:14:30;;;;;;;4.10;2.40;;;;;;;16.72;65.48;99701.50;7252913;39;20281;31
2023/09/23 19:20:09;;;;;;;8.00;2.00;;;;;;;16.64;65.80;99700.56;7260190;40;20260;31
2023/09/23 19:30:46;;;;;;;3.65;1.70;;;;;;;16.56;66.19;99713.41;7285615;39;20265;31
2023/09/23 19:41:22;;;;;;;3.14;2.18;;;;;;;16.28;67.03;99729.59;7336909;39;21162;31
2023/09/23 19:46:57;;;;;;;2.93;1.90;;;;;;;16.20;66.54;99730.56;7279338;40;21049;31
2023/09/23 19:52:20;;;;;;;3.27;2.00;;;;;;;16.03;67.84;99744.56;7220596;40;20244;31
2023/09/23 19:57:58;;;;;;;5.75;2.00;;;;;;;15.87;68.72;99758.34;7195191;40;20283;31
2023/09/23 20:08:23;;;;;;;3.63;1.90;;;;;;;15.81;68.09;99776.22;7324373;39;21064;31
2023/09/23 20:13:59;;;;;;;2.00;1.50;;;;;;;15.74;68.75;99778.88;7091307;39;21287;31
2023/09/23 20:24:38;;;;;;;2.60;1.70;;;;;;;15.71;67.62;99781.94;7255894;40;20371;31
2023/09/23 20:30:18;;;;;;;2.00;1.60;;;;;;;15.60;69.12;99792.41;7286594;39;20267;31
2023/09/23 20:35:55;;;;;;;5.07;2.10;;;;;;;15.17;70.38;99797.50;7285306;40;20299;31
2023/09/23 20:41:30;;;;;;;3.17;1.60;;;;;;;14.86;71.39;99800.28;7295958;39;20499;31
2023/09/23 20:52:11;;;;;;;3.80;1.70;;;;;;;14.92;69.83;99806.84;7286388;40;20332;31
2023/09/23 21:02:51;;;;;;;2.37;1.80;;;;;;;14.72;69.93;99821.91;7253350;40;21454;31
2023/09/23 21:08:30;;;;;;;6.84;1.76;;;;;;;14.62;70.79;99818.53;7267485;39;20282;31
2023/09/23 21:13:52;;;;;;;4.20;1.80;;;;;;;14.62;70.01;99821.25;7246173;40;20589;31
2023/09/23 21:24:31;;;;;;;3.40;1.80;;;;;;;14.69;70.07;99825.81;7252046;40;20263;31
2023/09/23 21:29:52;;;;;;;3.35;1.80;;;;;;;14.75;69.61;99835.09;7302776;39;20263;31
2023/09/23 21:35:12;;;;;;;4.25;1.80;;;;;;;14.72;69.59;99835.47;7338660;39;20242;31
2023/09/23 21:45:54;;;;;;;2.40;1.80;;;;;;;14.56;70.21;99855.38;7322661;39;20271;31
2023/09/23 21:51:16;;;;;;;2.90;1.80;;;;;;;14.52;70.03;99862.19;7334762;39;20600;31
2023/09/23 21:56:35;;;;;;;2.93;1.80;;;;;;;14.46;69.77;99857.47;7329147;39;20256;31
2023/09/23 22:02:11;;;;;;;3.50;1.70;;;;;;;14.22;70.36;99846.63;7340910;39;20280;31
2023/09/23 22:12:37;;;;;;;3.60;1.70;;;;;;;14.22;70.15;99852.91;7304535;39;21003;31
2023/09/23 22:23:17;;;;;;;3.33;1.50;;;;;;;13.85;71.59;99864.34;7296549;39;20274;31
2023/09/23 22:28:38;;;;;;;5.40;2.07;;;;;;;13.74;71.83;99859.28;7298210;40;20701;31
2023/09/23 22:33:58;;;;;;;4.68;1.84;;;;;;;13.78;71.66;99868.75;7301521;39;20872;31
2023/09/23 22:39:33;;;;;;;3.13;1.80;;;;;;;13.66;72.77;99871.97;7343185;39;20268;31
2023/09/23 22:44:52;;;;;;;5.90;2.17;;;;;;;13.67;72.37;99862.84;7277327;39;20869;31
2023/09/23 22:50:28;;;;;;;2.43;1.70;;;;;;;13.75;72.39;99876.38;7271316;40;20242;31
2023/09/23 22:56:06;;;;;;;3.70;1.70;;;;;;;13.78;72.20;99885.00;7249335;40;20246;31
2023/09/23 23:01:40;;;;;;;4.47;1.67;;;;;;;13.67;72.33;99900.75;7268187;40;20260;31
2023/09/23 23:07:14;;;;;;;4.77;1.73;;;;;;;13.61;72.09;99898.72;7276335;39;20237;31
2023/09/23 23:17:55;;;;;;;4.77;2.23;;;;;;;13.56;72.46;99901.13;7283360;39;20339;31
2023/09/23 23:23:16;;;;;;;4.03;1.87;;;;;;;13.46;72.13;99902.13;7268386;40;20281;31
2023/09/23 23:33:54;;;;;;;2.17;1.65;;;;;;;13.43;72.76;99907.84;7320701;39;21616;31
2023/09/23 23:44:35;;;;;;;2.80;1.70;;;;;;;13.24;72.72;99896.50;7350163;39;20723;31
2023/09/23 23:50:09;;;;;;;3.13;1.70;;;;;;;13.19;72.16;99898.84;7341659;39;20275;31
2023/09/23 23:55:31;;;;;;;2.40;1.57;;;;;;;13.18;72.46;99908.81;7257944;40;20265;31
